Time;durP1;ratioP1;P1;durP2;ratioP2;P2;SDS_P1;SDS_P2;PMS_P1;PMS_P2;Temp;Humidity;BMP_temperature;BMP_pressure;BME280_temperature;BME280_humidity;BME280_pressure;Samples;Min_cycle;Max_cycle;Signal;HPM_P1;HPM_P2
2023/09/12 00:02:13;;;;;;;3.60;2.90;;;20.10;99.90;;;;;;4910065;29;20079;-59
2023/09/12 00:04:40;;;;;;;7.18;2.70;;;20.10;99.90;;;;;;4911473;29;20083;-59
2023/09/12 00:07:06;;;;;;;9.95;3.83;;;20.10;99.90;;;;;;4906357;29;20052;-59
2023/09/12 00:09:33;;;;;;;5.60;3.28;;;20.10;99.90;;;;;;4911703;29;20100;-58
2023/09/12 00:12:00;;;;;;;7.07;3.35;;;20.10;99.90;;;;;;4907873;29;20143;-59
2023/09/12 00:14:27;;;;;;;6.22;3.10;;;20.00;99.90;;;;;;4911968;29;20055;-59
2023/09/12 00:16:55;;;;;;;9.38;3.08;;;20.00;99.90;;;;;;4907430;29;20048;-59
2023/09/12 00:19:22;;;;;;;5.88;2.83;;;19.90;99.90;;;;;;4913216;29;20393;-61
2023/09/12 00:21:49;;;;;;;7.88;2.88;;;19.90;99.90;;;;;;4909873;29;20063;-60
2023/09/12 00:24:16;;;;;;;7.30;3.83;;;19.90;99.90;;;;;;4913022;29;20480;-58
2023/09/12 00:26:42;;;;;;;6.90;3.28;;;19.90;99.90;;;;;;4910460;29;20082;-58
2023/09/12 00:29:09;;;;;;;5.00;3.25;;;19.80;99.90;;;;;;4905732;29;20191;-59
2023/09/12 00:31:36;;;;;;;8.02;3.60;;;19.80;99.90;;;;;;4912859;29;20108;-59
2023/09/12 00:34:03;;;;;;;4.93;2.90;;;19.70;99.90;;;;;;4904593;29;20057;-57
2023/09/12 00:36:30;;;;;;;8.07;2.92;;;19.70;99.90;;;;;;4898008;29;20883;-60
2023/09/12 00:38:57;;;;;;;5.93;3.88;;;19.70;99.90;;;;;;4902943;29;20175;-60
2023/09/12 00:41:24;;;;;;;6.30;3.13;;;19.80;99.90;;;;;;4896352;29;20062;-59
2023/09/12 00:43:50;;;;;;;7.78;3.22;;;19.80;99.90;;;;;;4908356;29;20045;-59
2023/09/12 00:46:18;;;;;;;8.60;4.43;;;19.70;99.90;;;;;;4893705;29;20527;-60
2023/09/12 00:48:46;;;;;;;6.50;3.75;;;19.70;99.90;;;;;;4891882;29;20139;-59
2023/09/12 00:51:14;;;;;;;5.05;3.13;;;19.70;99.90;;;;;;4883972;29;20420;-59
2023/09/12 00:53:40;;;;;;;5.88;3.20;;;19.70;99.90;;;;;;4909165;29;20504;-60
2023/09/12 00:56:07;;;;;;;9.50;3.58;;;19.70;99.90;;;;;;4895847;29;20055;-60
2023/09/12 00:58:34;;;;;;;8.20;3.78;;;19.70;99.90;;;;;;4908958;29;20051;-59
2023/09/12 01:01:01;;;;;;;5.72;3.85;;;19.70;99.90;;;;;;4913082;29;20060;-58
2023/09/12 01:03:28;;;;;;;5.43;2.80;;;19.80;99.90;;;;;;4895522;29;20044;-59
2023/09/12 01:05:55;;;;;;;8.00;3.03;;;19.70;99.90;;;;;;4876631;29;20115;-59
2023/09/12 01:08:22;;;;;;;5.38;3.00;;;19.60;99.90;;;;;;4880587;29;20119;-60
2023/09/12 01:10:49;;;;;;;6.82;3.97;;;19.60;99.90;;;;;;4900033;29;20088;-59
2023/09/12 01:13:16;;;;;;;6.68;3.65;;;19.60;99.90;;;;;;4883222;29;20484;-60
2023/09/12 01:15:43;;;;;;;7.55;3.85;;;19.60;99.90;;;;;;4895846;29;20104;-60
2023/09/12 01:18:11;;;;;;;6.13;3.20;;;19.60;99.90;;;;;;4911296;29;20080;-59
2023/09/12 01:20:39;;;;;;;5.40;3.42;;;19.60;99.90;;;;;;4869844;29;20052;-59
2023/09/12 01:23:17;;;;;;;6.78;3.28;;;19.50;99.90;;;;;;4893791;29;20488;-60
2023/09/12 01:25:47;;;;;;;7.28;3.60;;;19.50;99.90;;;;;;4911300;29;20051;-60
2023/09/12 01:28:15;;;;;;;11.23;3.30;;;19.40;99.90;;;;;;4910332;29;20071;-59
2023/09/12 01:30:42;;;;;;;4.93;3.03;;;19.40;99.90;;;;;;4894339;29;20111;-60
2023/09/12 01:33:09;;;;;;;7.03;3.42;;;19.40;99.90;;;;;;4879879;29;20048;-60
2023/09/12 01:35:36;;;;;;;7.30;3.25;;;19.40;99.90;;;;;;4908329;29;20052;-59
2023/09/12 01:38:03;;;;;;;4.25;2.90;;;19.40;99.90;;;;;;4910936;29;20056;-59
2023/09/12 01:40:34;;;;;;;8.55;4.00;;;19.40;99.90;;;;;;4557568;29;9999811;-58
2023/09/12 01:43:01;;;;;;;6.60;3.50;;;19.40;99.90;;;;;;4878354;29;20500;-59
2023/09/12 01:45:28;;;;;;;9.45;3.40;;;19.50;99.90;;;;;;4892635;29;20100;-59
2023/09/12 01:47:55;;;;;;;7.68;3.45;;;19.50;99.90;;;;;;4877214;29;20056;-59
2023/09/12 01:50:22;;;;;;;6.93;3.58;;;19.50;99.90;;;;;;4890147;29;20052;-59
2023/09/12 01:52:48;;;;;;;9.07;3.42;;;19.60;99.90;;;;;;4895644;29;20056;-59
2023/09/12 01:55:15;;;;;;;5.55;2.80;;;19.60;99.90;;;;;;4907283;29;20111;-59
2023/09/12 01:57:42;;;;;;;5.88;3.20;;;19.60;99.90;;;;;;4895797;29;20100;-59
2023/09/12 02:00:10;;;;;;;7.07;2.80;;;19.60;99.90;;;;;;4895188;29;20048;-59
2023/09/12 02:02:36;;;;;;;10.27;3.67;;;19.60;99.90;;;;;;4898821;29;20452;-59
2023/09/12 02:05:12;;;;;;;8.35;3.25;;;19.60;99.90;;;;;;4895814;29;20045;-59
2023/09/12 02:07:41;;;;;;;10.18;3.63;;;19.50;99.90;;;;;;4876394;29;20053;-59
2023/09/12 02:10:09;;;;;;;6.32;3.28;;;19.50;99.90;;;;;;4909219;29;20462;-59
2023/09/12 02:12:36;;;;;;;6.90;3.47;;;19.60;99.90;;;;;;4912572;29;20056;-58
2023/09/12 02:15:03;;;;;;;8.38;3.75;;;19.60;99.90;;;;;;4907475;29;20131;-58
2023/09/12 02:17:30;;;;;;;8.10;3.13;;;19.60;99.90;;;;;;4910809;29;20147;-58
2023/09/12 02:19:57;;;;;;;4.70;3.15;;;19.70;99.90;;;;;;4897094;29;20048;-60
2023/09/12 02:22:24;;;;;;;7.10;3.20;;;19.70;99.90;;;;;;4910588;29;20108;-59
2023/09/12 02:24:51;;;;;;;9.48;3.88;;;19.60;99.90;;;;;;4894070;29;20140;-59
2023/09/12 02:27:17;;;;;;;6.78;3.45;;;19.60;99.90;;;;;;4906505;29;20100;-59
2023/09/12 02:29:44;;;;;;;6.70;3.45;;;19.50;99.90;;;;;;4892764;29;20479;-58
2023/09/12 02:32:11;;;;;;;6.45;3.67;;;19.50;99.90;;;;;;4907543;29;20048;-59
2023/09/12 02:34:38;;;;;;;5.47;3.70;;;19.50;99.90;;;;;;4911634;29;20056;-59
2023/09/12 02:37:05;;;;;;;10.45;3.72;;;19.50;99.90;;;;;;4909785;29;20047;-59
2023/09/12 02:39:32;;;;;;;8.95;3.47;;;19.50;99.90;;;;;;4893106;29;20458;-59
2023/09/12 02:41:58;;;;;;;6.53;3.88;;;19.50;99.90;;;;;;4904969;29;20062;-59
2023/09/12 02:44:25;;;;;;;4.75;3.17;;;19.50;99.90;;;;;;4894606;29;20048;-58
2023/09/12 02:46:52;;;;;;;5.38;3.10;;;19.60;99.90;;;;;;4901619;29;20119;-62
2023/09/12 02:49:19;;;;;;;9.32;3.35;;;19.60;99.90;;;;;;4907532;29;20139;-59
2023/09/12 02:51:45;;;;;;;6.00;3.50;;;19.60;99.90;;;;;;4909559;29;20044;-60
2023/09/12 02:54:12;;;;;;;12.32;3.70;;;19.60;99.90;;;;;;4911670;29;20044;-59
2023/09/12 02:56:39;;;;;;;5.47;3.00;;;19.60;99.90;;;;;;4907664;29;20056;-59
2023/09/12 02:59:06;;;;;;;5.43;3.17;;;19.60;99.90;;;;;;4908146;29;20119;-61
2023/09/12 03:01:33;;;;;;;6.68;3.15;;;19.60;99.90;;;;;;4908834;29;20123;-59
2023/09/12 03:04:00;;;;;;;4.70;2.70;;;19.70;99.90;;;;;;4909355;29;20047;-60
2023/09/12 03:06:28;;;;;;;8.13;3.30;;;19.70;99.90;;;;;;4909347;29;20052;-59
2023/09/12 03:08:54;;;;;;;5.97;2.83;;;19.60;99.90;;;;;;4892884;29;20591;-60
2023/09/12 03:11:21;;;;;;;4.88;2.90;;;19.60;99.90;;;;;;4900104;29;20052;-59
2023/09/12 03:13:48;;;;;;;5.55;2.92;;;19.60;99.90;;;;;;4907114;29;20045;-59
2023/09/12 03:16:15;;;;;;;5.82;3.13;;;19.60;99.90;;;;;;4899581;29;20052;-60
2023/09/12 03:18:41;;;;;;;8.13;3.70;;;19.70;99.90;;;;;;4890053;29;20450;-59
2023/09/12 03:21:09;;;;;;;5.97;2.70;;;19.70;99.90;;;;;;4910439;29;20136;-59
2023/09/12 03:23:35;;;;;;;7.53;4.07;;;19.60;99.90;;;;;;4909852;29;20504;-60
2023/09/12 03:26:05;;;;;;;9.43;3.03;;;19.60;99.90;;;;;;4891499;29;20592;-60
2023/09/12 03:28:32;;;;;;;11.55;4.10;;;19.70;99.90;;;;;;4904213;29;20540;-60
2023/09/12 03:31:12;;;;;;;5.72;3.50;;;19.70;99.90;;;;;;4901231;29;20653;-60
2023/09/12 03:33:40;;;;;;;6.10;3.28;;;19.70;99.90;;;;;;4901956;29;20080;-60
2023/09/12 03:36:07;;;;;;;10.23;3.47;;;19.70;99.90;;;;;;4908703;29;20128;-60
2023/09/12 03:38:34;;;;;;;9.27;4.10;;;19.80;99.90;;;;;;4906686;29;20048;-60
2023/09/12 03:41:01;;;;;;;7.15;3.22;;;19.80;99.90;;;;;;4907004;29;20104;-60
2023/09/12 03:43:28;;;;;;;6.85;4.28;;;19.70;99.90;;;;;;4905868;29;20049;-60
2023/09/12 03:45:55;;;;;;;8.55;3.25;;;19.70;99.90;;;;;;4901921;29;20135;-61
2023/09/12 03:48:21;;;;;;;6.45;3.10;;;19.70;99.90;;;;;;4910021;29;20044;-59
2023/09/12 03:50:48;;;;;;;7.55;3.28;;;19.70;99.90;;;;;;4904257;29;20055;-60
2023/09/12 03:53:15;;;;;;;7.72;3.65;;;19.60;99.90;;;;;;4912926;29;20056;-60
2023/09/12 03:55:43;;;;;;;5.35;3.50;;;19.60;99.90;;;;;;4913707;29;20055;-60
2023/09/12 03:58:09;;;;;;;5.55;3.05;;;19.60;99.90;;;;;;4880414;29;20452;-60
2023/09/12 04:00:36;;;;;;;6.90;4.28;;;19.50;99.90;;;;;;4906825;29;20048;-61
2023/09/12 04:03:03;;;;;;;7.28;3.42;;;19.50;99.90;;;;;;4913978;29;20055;-60
2023/09/12 04:05:30;;;;;;;10.20;3.97;;;19.40;99.90;;;;;;4907700;29;20076;-61
2023/09/12 04:07:57;;;;;;;9.32;3.92;;;19.40;99.90;;;;;;4896924;29;20063;-59
2023/09/12 04:10:24;;;;;;;8.85;3.50;;;19.40;99.90;;;;;;4894384;29;20531;-60
2023/09/12 04:12:50;;;;;;;11.00;3.80;;;19.30;99.90;;;;;;4909304;29;20048;-60
2023/09/12 04:15:17;;;;;;;6.03;3.67;;;19.30;99.90;;;;;;4899288;29;20048;-60
2023/09/12 04:17:44;;;;;;;8.20;4.03;;;19.30;99.90;;;;;;4913793;29;20066;-60
2023/09/12 04:20:14;;;;;;;8.98;3.30;;;19.30;99.90;;;;;;4906822;29;20534;-60
2023/09/12 04:22:44;;;;;;;4.88;3.35;;;19.30;99.90;;;;;;4912772;29;20052;-59
2023/09/12 04:25:11;;;;;;;9.93;4.22;;;19.30;99.90;;;;;;4910198;29;20309;-59
2023/09/12 04:27:38;;;;;;;5.72;3.20;;;19.30;99.90;;;;;;4913084;29;20052;-60
2023/09/12 04:30:05;;;;;;;6.32;3.25;;;19.30;99.90;;;;;;4906128;29;20048;-59
2023/09/12 04:32:32;;;;;;;7.22;4.40;;;19.30;99.90;;;;;;4911030;29;20523;-59
2023/09/12 04:34:59;;;;;;;10.73;3.67;;;19.30;99.90;;;;;;4909929;29;20055;-59
2023/09/12 04:37:26;;;;;;;5.00;3.38;;;19.30;99.90;;;;;;4909137;29;20108;-58
2023/09/12 04:39:53;;;;;;;12.18;4.80;;;19.30;99.90;;;;;;4906318;29;20076;-60
2023/09/12 04:42:20;;;;;;;6.57;3.42;;;19.20;99.90;;;;;;4909415;29;20111;-62
2023/09/12 04:44:47;;;;;;;6.00;3.90;;;19.20;99.90;;;;;;4911635;29;20371;-60
2023/09/12 04:47:14;;;;;;;10.32;4.05;;;19.20;99.90;;;;;;4902034;29;20048;-60
2023/09/12 04:49:43;;;;;;;8.30;3.75;;;19.20;99.90;;;;;;4900876;29;20052;-61
2023/09/12 04:52:09;;;;;;;8.65;4.00;;;19.20;99.90;;;;;;4908995;29;20296;-61
2023/09/12 04:54:36;;;;;;;10.48;3.78;;;19.20;99.90;;;;;;4913171;29;20048;-60
2023/09/12 04:57:03;;;;;;;8.13;3.38;;;19.20;99.90;;;;;;4900236;29;20100;-60
2023/09/12 04:59:30;;;;;;;9.50;4.03;;;19.20;99.90;;;;;;4903576;29;20045;-60
2023/09/12 05:01:57;;;;;;;6.45;3.80;;;19.20;99.90;;;;;;4906113;29;20052;-60
2023/09/12 05:04:23;;;;;;;8.60;3.88;;;19.20;99.90;;;;;;4910360;29;20055;-60
2023/09/12 05:06:50;;;;;;;8.10;3.08;;;19.20;99.90;;;;;;4902344;29;20489;-60
2023/09/12 05:09:17;;;;;;;6.53;3.28;;;19.20;99.90;;;;;;4901291;29;20051;-60
2023/09/12 05:11:44;;;;;;;11.98;4.35;;;19.20;99.90;;;;;;4905675;29;20047;-60
2023/09/12 05:14:11;;;;;;;7.10;3.88;;;19.20;99.90;;;;;;4905259;29;20083;-60
2023/09/12 05:16:38;;;;;;;7.80;3.97;;;19.20;99.90;;;;;;4900781;29;20040;-60
2023/09/12 05:19:05;;;;;;;6.15;3.10;;;19.20;99.90;;;;;;4907619;29;20123;-59
2023/09/12 05:21:32;;;;;;;9.38;3.53;;;19.20;99.90;;;;;;4910655;29;20579;-59
2023/09/12 05:23:59;;;;;;;9.98;3.72;;;19.10;99.90;;;;;;4908321;29;20435;-59
2023/09/12 05:26:25;;;;;;;5.65;3.45;;;19.10;99.90;;;;;;4908576;29;20044;-60
2023/09/12 05:28:52;;;;;;;10.52;3.70;;;19.10;99.90;;;;;;4903198;29;20112;-59
2023/09/12 05:31:19;;;;;;;4.65;3.38;;;19.10;99.90;;;;;;4904068;29;20053;-59
2023/09/12 05:33:46;;;;;;;8.40;3.90;;;19.10;99.90;;;;;;4908346;29;20367;-59
2023/09/12 05:36:13;;;;;;;10.73;3.92;;;19.10;99.90;;;;;;4899549;29;20144;-58
2023/09/12 05:38:40;;;;;;;8.50;3.55;;;19.10;99.90;;;;;;4899198;29;20048;-61
2023/09/12 05:41:07;;;;;;;8.68;3.42;;;19.10;99.90;;;;;;4910644;29;20059;-59
2023/09/12 05:43:34;;;;;;;7.65;4.15;;;19.10;99.90;;;;;;4890805;29;20055;-60
2023/09/12 05:46:02;;;;;;;6.22;3.95;;;19.20;99.90;;;;;;4903921;29;20096;-58
2023/09/12 05:48:28;;;;;;;5.18;3.22;;;19.10;99.90;;;;;;4890016;29;20057;-60
2023/09/12 05:50:55;;;;;;;8.38;3.45;;;19.20;99.90;;;;;;4911543;29;20080;-56
2023/09/12 05:53:22;;;;;;;6.22;3.58;;;19.10;99.90;;;;;;4903816;29;20056;-58
2023/09/12 05:55:49;;;;;;;9.45;4.13;;;19.20;99.90;;;;;;4905223;29;20044;-59
2023/09/12 05:58:16;;;;;;;7.28;3.50;;;19.20;99.90;;;;;;4900344;29;20145;-59
2023/09/12 06:00:42;;;;;;;9.68;3.78;;;19.20;99.90;;;;;;4905775;29;20073;-59
2023/09/12 06:03:09;;;;;;;7.22;4.47;;;19.20;99.90;;;;;;4881151;29;20496;-60
2023/09/12 06:05:36;;;;;;;9.00;4.35;;;19.20;99.90;;;;;;4905830;29;20058;-59
2023/09/12 06:08:04;;;;;;;5.43;3.33;;;19.20;99.90;;;;;;4907363;29;20048;-60
2023/09/12 06:10:31;;;;;;;6.50;3.95;;;19.20;99.90;;;;;;4902511;29;20036;-59
2023/09/12 06:12:58;;;;;;;12.20;4.35;;;19.20;99.90;;;;;;4908218;29;20079;-55
2023/09/12 06:15:25;;;;;;;9.18;3.55;;;19.20;99.90;;;;;;4904609;29;20048;-58
2023/09/12 06:17:52;;;;;;;9.55;3.70;;;19.20;99.90;;;;;;4907260;29;20051;-59
2023/09/12 06:20:19;;;;;;;24.42;5.70;;;19.20;99.90;;;;;;4900031;29;20056;-57
2023/09/12 06:22:46;;;;;;;9.55;4.75;;;19.30;99.90;;;;;;4905768;29;20098;-57
2023/09/12 06:25:12;;;;;;;12.60;4.57;;;19.30;99.90;;;;;;4898743;29;20407;-60
2023/09/12 06:27:39;;;;;;;8.00;4.00;;;19.30;99.90;;;;;;4908954;29;20068;-59
2023/09/12 06:30:07;;;;;;;7.60;3.92;;;19.40;99.90;;;;;;4903792;29;20076;-59
2023/09/12 06:32:34;;;;;;;8.57;3.78;;;19.40;99.90;;;;;;4908191;29;20055;-58
2023/09/12 06:35:00;;;;;;;9.07;3.80;;;19.50;99.90;;;;;;4907252;29;20107;-59
2023/09/12 06:37:27;;;;;;;12.80;4.28;;;19.60;99.90;;;;;;4908189;29;20135;-55
2023/09/12 06:39:54;;;;;;;5.13;3.55;;;19.60;99.90;;;;;;4907574;29;20300;-57
2023/09/12 06:42:21;;;;;;;6.72;3.85;;;19.60;99.90;;;;;;4907458;29;20052;-58
2023/09/12 06:44:47;;;;;;;8.07;2.95;;;19.70;99.90;;;;;;4905902;29;20082;-59
2023/09/12 06:47:14;;;;;;;6.93;2.97;;;19.60;99.90;;;;;;4905230;29;20087;-59
2023/09/12 06:49:41;;;;;;;3.97;2.88;;;19.70;99.90;;;;;;4903169;29;20107;-59
2023/09/12 06:52:09;;;;;;;6.85;3.45;;;19.70;99.90;;;;;;4905521;29;20088;-57
2023/09/12 06:54:36;;;;;;;13.38;4.15;;;19.70;99.90;;;;;;4906631;29;20377;-60
2023/09/12 06:57:03;;;;;;;3.85;2.60;;;19.80;99.90;;;;;;4904884;29;20115;-59
2023/09/12 06:59:30;;;;;;;5.88;3.53;;;19.80;99.90;;;;;;4904992;29;20212;-58
2023/09/12 07:01:57;;;;;;;4.03;2.80;;;19.90;99.90;;;;;;4904095;29;20060;-58
2023/09/12 07:04:25;;;;;;;7.30;3.58;;;19.90;99.90;;;;;;4909000;29;20084;-59
2023/09/12 07:06:52;;;;;;;9.15;3.47;;;20.00;99.90;;;;;;4905196;29;20070;-56
2023/09/12 07:09:19;;;;;;;7.00;3.40;;;20.00;99.90;;;;;;4908073;29;20055;-58
2023/09/12 07:11:46;;;;;;;5.20;3.10;;;20.00;99.90;;;;;;4906236;29;20051;-58
2023/09/12 07:14:13;;;;;;;4.85;3.28;;;20.00;99.90;;;;;;4904169;29;20052;-58
2023/09/12 07:16:40;;;;;;;7.88;3.33;;;20.00;99.90;;;;;;4566675;29;10000510;-59
2023/09/12 07:19:07;;;;;;;29.27;5.22;;;20.10;99.90;;;;;;4888219;29;20501;-61
2023/09/12 07:21:34;;;;;;;9.20;4.15;;;20.10;99.90;;;;;;4903897;29;20564;-57
2023/09/12 07:24:01;;;;;;;7.95;3.22;;;20.00;99.90;;;;;;4910836;29;20496;-59
2023/09/12 07:26:28;;;;;;;8.73;4.32;;;20.00;99.90;;;;;;4908047;29;20059;-58
2023/09/12 07:28:55;;;;;;;6.78;3.42;;;20.00;99.90;;;;;;4893299;29;20120;-57
2023/09/12 07:31:22;;;;;;;5.15;3.55;;;20.00;99.90;;;;;;4891079;29;20060;-59
2023/09/12 07:33:49;;;;;;;6.45;3.42;;;20.00;99.90;;;;;;4874468;29;20056;-58
2023/09/12 07:36:16;;;;;;;12.52;4.60;;;20.00;99.90;;;;;;4888045;29;20493;-58
2023/09/12 07:38:45;;;;;;;7.05;3.70;;;20.00;99.90;;;;;;4889642;29;20485;-58
2023/09/12 07:41:12;;;;;;;6.97;3.80;;;20.00;99.90;;;;;;4889878;29;20084;-56
2023/09/12 07:43:40;;;;;;;8.23;3.53;;;20.10;99.90;;;;;;4887216;29;20044;-57
2023/09/12 07:46:07;;;;;;;13.00;3.80;;;20.20;99.90;;;;;;4889807;29;20049;-58
2023/09/12 07:48:34;;;;;;;8.27;3.55;;;20.20;99.90;;;;;;4878293;29;20516;-59
2023/09/12 07:51:02;;;;;;;7.30;4.07;;;20.30;99.90;;;;;;4886650;29;20552;-58
2023/09/12 07:53:29;;;;;;;10.35;3.75;;;20.30;99.90;;;;;;4879327;29;20594;-58
2023/09/12 07:55:59;;;;;;;13.35;5.07;;;20.30;99.90;;;;;;4885401;29;20084;-56
2023/09/12 07:58:26;;;;;;;8.80;3.65;;;20.30;99.90;;;;;;4883788;29;20778;-57
2023/09/12 08:00:53;;;;;;;7.78;4.40;;;20.40;99.90;;;;;;4888408;29;20144;-58
2023/09/12 08:03:20;;;;;;;8.95;3.75;;;20.40;99.90;;;;;;4888742;29;20071;-57
2023/09/12 08:05:59;;;;;;;5.63;3.78;;;20.40;99.90;;;;;;4889934;29;20425;-57
2023/09/12 08:08:26;;;;;;;9.60;3.10;;;20.40;99.90;;;;;;4887163;29;20552;-57
2023/09/12 08:10:54;;;;;;;4.97;3.50;;;20.40;99.90;;;;;;4881177;29;20480;-58
2023/09/12 08:13:21;;;;;;;8.80;4.43;;;20.30;99.90;;;;;;4879844;29;20061;-62
2023/09/12 08:15:48;;;;;;;5.57;4.00;;;20.30;99.90;;;;;;4891444;29;20543;-57
2023/09/12 08:18:16;;;;;;;12.15;4.88;;;20.40;99.90;;;;;;4864084;29;20143;-58
2023/09/12 08:20:44;;;;;;;7.57;4.15;;;20.40;99.90;;;;;;4880904;29;20127;-58
2023/09/12 08:23:11;;;;;;;10.13;4.20;;;20.40;99.90;;;;;;4882412;29;20549;-58
2023/09/12 08:25:39;;;;;;;7.68;3.70;;;20.40;99.90;;;;;;4886234;29;20559;-57
2023/09/12 08:28:06;;;;;;;5.97;3.45;;;20.40;99.90;;;;;;4887302;29;20063;-59
2023/09/12 08:30:33;;;;;;;5.97;3.78;;;20.50;99.90;;;;;;4899011;29;20108;-57
2023/09/12 08:33:03;;;;;;;5.00;3.22;;;20.40;99.90;;;;;;4906124;29;20056;-58
2023/09/12 08:35:29;;;;;;;7.90;4.03;;;20.40;99.90;;;;;;4901352;29;20241;-57
2023/09/12 08:37:56;;;;;;;11.98;5.07;;;20.30;99.90;;;;;;4907503;29;20555;-59
2023/09/12 08:40:23;;;;;;;10.43;3.55;;;20.30;99.90;;;;;;4905369;29;20100;-57
2023/09/12 08:42:50;;;;;;;9.70;4.25;;;20.30;99.90;;;;;;4905617;29;20057;-60
2023/09/12 08:45:18;;;;;;;5.43;3.35;;;20.40;99.90;;;;;;4889834;29;20522;-59
2023/09/12 08:47:49;;;;;;;9.88;4.25;;;20.40;99.90;;;;;;4898424;29;20063;-58
2023/09/12 08:50:17;;;;;;;5.13;3.70;;;20.40;99.90;;;;;;4901683;29;20123;-57
2023/09/12 08:52:45;;;;;;;5.20;3.53;;;20.50;99.90;;;;;;4904987;29;20527;-58
2023/09/12 08:55:33;;;;;;;8.45;3.60;;;20.60;99.90;;;;;;4894160;29;20045;-58
2023/09/12 08:58:00;;;;;;;12.13;3.97;;;20.70;99.90;;;;;;4900591;29;20508;-57
2023/09/12 09:00:27;;;;;;;12.07;3.92;;;20.60;99.90;;;;;;4888781;29;20492;-59
2023/09/12 09:02:54;;;;;;;6.55;3.78;;;20.70;99.90;;;;;;4889811;29;20064;-57
2023/09/12 09:05:22;;;;;;;10.75;3.90;;;20.60;99.90;;;;;;4888278;29;20491;-58
2023/09/12 09:07:49;;;;;;;8.05;3.58;;;20.50;99.90;;;;;;4906531;29;20084;-58
2023/09/12 09:10:17;;;;;;;9.48;3.90;;;20.40;99.90;;;;;;4895971;29;20472;-60
2023/09/12 09:12:50;;;;;;;5.22;3.35;;;20.50;99.90;;;;;;4904665;29;20075;-58
2023/09/12 09:15:27;;;;;;;4.72;3.15;;;20.60;99.90;;;;;;4906568;29;20488;-58
2023/09/12 09:17:56;;;;;;;5.10;3.30;;;20.60;99.90;;;;;;4906071;29;20056;-58
2023/09/12 09:20:26;;;;;;;6.47;3.13;;;20.70;99.90;;;;;;4903915;29;20138;-58
2023/09/12 09:22:57;;;;;;;6.28;3.78;;;20.70;99.90;;;;;;4885583;29;20052;-58
2023/09/12 09:25:24;;;;;;;11.23;3.65;;;20.80;99.90;;;;;;4899145;29;20116;-58
2023/09/12 09:27:51;;;;;;;6.00;3.35;;;20.90;99.90;;;;;;4900995;29;20143;-58
2023/09/12 09:30:18;;;;;;;7.88;3.33;;;21.00;99.90;;;;;;4908184;29;20571;-57
2023/09/12 09:32:46;;;;;;;8.63;3.65;;;21.10;99.90;;;;;;4887138;29;20048;-57
2023/09/12 09:35:13;;;;;;;5.68;3.22;;;21.10;99.90;;;;;;4896113;29;20060;-58
2023/09/12 09:37:42;;;;;;;6.07;3.65;;;21.20;99.90;;;;;;4896677;29;20049;-58
2023/09/12 09:40:09;;;;;;;6.47;3.05;;;21.40;99.90;;;;;;4889390;29;20048;-57
2023/09/12 09:42:37;;;;;;;10.02;3.47;;;21.50;99.90;;;;;;4899306;29;20064;-59
2023/09/12 09:45:05;;;;;;;4.75;2.97;;;21.80;99.90;;;;;;4887504;29;20538;-58
2023/09/12 09:47:31;;;;;;;7.67;2.53;;;21.70;99.90;;;;;;4884492;29;20142;-59
2023/09/12 09:49:59;;;;;;;4.63;3.05;;;21.60;99.90;;;;;;4879465;29;20320;-57
2023/09/12 09:52:29;;;;;;;9.80;3.50;;;21.60;99.90;;;;;;4901112;29;20052;-58
2023/09/12 09:54:56;;;;;;;8.02;3.20;;;21.80;99.90;;;;;;4874766;29;20056;-61
2023/09/12 09:57:25;;;;;;;4.05;2.88;;;21.90;99.90;;;;;;4898153;29;20580;-58
2023/09/12 09:59:53;;;;;;;6.75;2.35;;;22.00;99.90;;;;;;4888873;29;20081;-59
2023/09/12 10:02:22;;;;;;;8.20;3.60;;;22.00;99.90;;;;;;4888564;29;20350;-58
2023/09/12 10:04:49;;;;;;;6.13;2.63;;;22.00;99.90;;;;;;4883256;29;20052;-61
2023/09/12 10:07:26;;;;;;;8.45;3.60;;;22.00;99.90;;;;;;4882787;29;20045;-58
2023/09/12 10:09:53;;;;;;;7.35;2.60;;;22.00;99.90;;;;;;4900932;29;20060;-58
2023/09/12 10:12:20;;;;;;;6.28;2.65;;;22.00;99.90;;;;;;4885040;29;20044;-59
2023/09/12 10:14:47;;;;;;;3.15;2.35;;;22.00;99.90;;;;;;4882642;29;20080;-59
2023/09/12 10:17:14;;;;;;;2.53;1.60;;;22.00;99.90;;;;;;4881526;29;20048;-59
2023/09/12 10:19:51;;;;;;;3.90;1.80;;;21.90;99.90;;;;;;4881403;29;20415;-57
2023/09/12 10:22:25;;;;;;;5.15;2.08;;;21.80;99.90;;;;;;4885003;29;20052;-59
2023/09/12 10:24:53;;;;;;;5.85;2.20;;;21.90;99.90;;;;;;4879383;29;20093;-57
2023/09/12 10:27:20;;;;;;;5.78;1.85;;;21.80;99.90;;;;;;4897705;29;20080;-58
2023/09/12 10:29:49;;;;;;;4.15;1.60;;;22.00;99.90;;;;;;4889051;29;20060;-58
2023/09/12 10:32:16;;;;;;;4.65;1.90;;;22.00;99.90;;;;;;4890402;29;20048;-58
2023/09/12 10:34:44;;;;;;;5.95;1.70;;;22.00;99.90;;;;;;4889357;29;20056;-59
2023/09/12 10:37:12;;;;;;;8.88;2.13;;;22.20;99.90;;;;;;4905788;29;20166;-63
2023/09/12 10:39:39;;;;;;;7.75;1.95;;;22.20;99.90;;;;;;4887184;29;20052;-60
2023/09/12 10:42:06;;;;;;;4.78;1.85;;;22.30;99.90;;;;;;4872899;29;20078;-61
2023/09/12 10:44:32;;;;;;;3.53;1.88;;;22.40;99.90;;;;;;4873136;29;20048;-57
2023/09/12 10:46:59;;;;;;;3.25;2.15;;;22.50;99.90;;;;;;4872869;29;20466;-58
2023/09/12 10:49:26;;;;;;;5.38;1.88;;;22.60;99.90;;;;;;4903131;29;20056;-59
2023/09/12 10:51:53;;;;;;;5.57;1.90;;;22.70;99.90;;;;;;4905423;29;20075;-58
2023/09/12 10:54:25;;;;;;;5.85;1.85;;;22.70;99.90;;;;;;4876610;29;20485;-58
2023/09/12 10:57:13;;;;;;;6.60;2.15;;;22.70;99.90;;;;;;4905850;29;20111;-60
2023/09/12 10:59:59;;;;;;;4.68;2.50;;;22.70;99.90;;;;;;4904678;29;20052;-58
2023/09/12 11:02:33;;;;;;;4.05;1.80;;;22.60;99.90;;;;;;4905587;29;20115;-57
2023/09/12 11:05:01;;;;;;;3.92;1.90;;;22.80;99.90;;;;;;4889673;29;20142;-57
2023/09/12 11:07:36;;;;;;;6.32;2.78;;;23.00;99.90;;;;;;4890214;29;20059;-57
2023/09/12 11:10:18;;;;;;;6.53;2.20;;;23.00;99.90;;;;;;4905102;29;20055;-59
2023/09/12 11:12:52;;;;;;;2.65;1.50;;;23.00;99.90;;;;;;4908632;29;20052;-62
2023/09/12 11:15:22;;;;;;;7.70;2.35;;;23.20;99.90;;;;;;4908640;29;20460;-59
2023/09/12 11:17:49;;;;;;;4.20;1.98;;;23.10;99.90;;;;;;4892909;29;20293;-58
2023/09/12 11:20:16;;;;;;;5.57;2.17;;;23.10;99.90;;;;;;4908105;29;20511;-59
2023/09/12 11:22:45;;;;;;;3.33;1.58;;;23.20;99.90;;;;;;4908153;29;20135;-58
2023/09/12 11:25:22;;;;;;;4.40;1.98;;;23.30;99.90;;;;;;4890363;29;20595;-59
2023/09/12 11:27:53;;;;;;;5.40;1.77;;;23.40;99.90;;;;;;4905248;29;20064;-59
2023/09/12 11:30:29;;;;;;;10.57;2.10;;;23.30;99.90;;;;;;4911011;29;20044;-60
2023/09/12 11:32:56;;;;;;;5.30;1.73;;;23.40;99.90;;;;;;4904632;29;20362;-73
2023/09/12 11:35:25;;;;;;;5.10;1.75;;;23.30;99.90;;;;;;4888923;29;20142;-57
2023/09/12 11:37:55;;;;;;;4.07;1.80;;;23.40;99.90;;;;;;4908905;29;20075;-59
2023/09/12 11:40:26;;;;;;;3.47;1.98;;;23.40;99.90;;;;;;4905774;29;20483;-60
2023/09/12 11:42:53;;;;;;;7.07;2.22;;;23.40;99.90;;;;;;4906679;29;20059;-57
2023/09/12 11:45:21;;;;;;;2.33;1.70;;;23.50;99.90;;;;;;4902655;29;20051;-60
2023/09/12 11:47:48;;;;;;;6.50;1.70;;;23.50;99.90;;;;;;4908271;29;20575;-59
2023/09/12 11:50:31;;;;;;;6.72;1.75;;;23.40;99.90;;;;;;4885624;29;20473;-58
2023/09/12 11:53:00;;;;;;;4.05;1.77;;;23.60;99.90;;;;;;4904827;29;20531;-58
2023/09/12 11:55:29;;;;;;;3.97;1.65;;;23.70;99.90;;;;;;4888450;29;20103;-58
2023/09/12 11:57:55;;;;;;;2.75;1.83;;;23.80;99.90;;;;;;4878527;29;20084;-57
2023/09/12 12:00:22;;;;;;;4.47;1.45;;;23.90;99.90;;;;;;4894427;29;20150;-59
2023/09/12 12:02:49;;;;;;;4.88;1.65;;;24.00;99.90;;;;;;4888188;29;20078;-60
2023/09/12 12:05:16;;;;;;;2.72;1.52;;;24.00;99.90;;;;;;4892814;29;20090;-60
2023/09/12 12:07:46;;;;;;;1.73;1.40;;;24.00;99.90;;;;;;4902410;29;20131;-59
2023/09/12 12:10:13;;;;;;;5.68;1.60;;;24.00;99.90;;;;;;4889562;29;20056;-59
2023/09/12 12:12:41;;;;;;;6.28;1.52;;;23.90;99.90;;;;;;4906409;29;20044;-61
2023/09/12 12:15:14;;;;;;;3.70;1.50;;;23.80;99.90;;;;;;4892930;29;20048;-59
2023/09/12 12:17:41;;;;;;;2.05;1.33;;;23.70;99.90;;;;;;4902088;29;20056;-58
2023/09/12 12:20:10;;;;;;;3.50;1.48;;;23.70;99.90;;;;;;4906733;29;20488;-57
2023/09/12 12:22:38;;;;;;;5.32;1.42;;;23.70;99.90;;;;;;4877850;29;20052;-59
2023/09/12 12:25:11;;;;;;;12.80;1.80;;;23.60;99.90;;;;;;4891008;29;20048;-58
2023/09/12 12:27:39;;;;;;;3.67;1.40;;;23.50;99.90;;;;;;4889654;29;20111;-59
2023/09/12 12:30:11;;;;;;;2.50;1.55;;;23.50;99.90;;;;;;4906294;29;20055;-56
2023/09/12 12:32:42;;;;;;;11.20;2.15;;;23.50;99.90;;;;;;4903136;29;20253;-58
2023/09/12 12:35:10;;;;;;;3.25;1.63;;;23.50;99.90;;;;;;4909526;29;20104;-59
2023/09/12 12:37:57;;;;;;;6.07;1.90;;;23.40;99.90;;;;;;4890715;29;20646;-58
2023/09/12 12:40:36;;;;;;;5.45;1.42;;;23.60;99.90;;;;;;4896427;29;20052;-59
2023/09/12 12:43:17;;;;;;;9.98;1.85;;;23.50;99.90;;;;;;4892590;29;20139;-58
2023/09/12 12:45:57;;;;;;;6.72;2.53;;;23.50;99.90;;;;;;4906223;29;20324;-58
2023/09/12 12:48:34;;;;;;;6.78;1.60;;;23.50;99.90;;;;;;4907836;29;20048;-57
2023/09/12 12:51:22;;;;;;;5.47;1.92;;;23.40;99.90;;;;;;4904321;29;20052;-57